createdAt,value
2022-09-10T00:01:21.446Z,15.18
2022-09-10T00:03:51.046Z,15.10
2022-09-10T00:06:18.690Z,15.16
2022-09-10T00:08:46.469Z,15.16
2022-09-10T00:11:14.893Z,15.15
2022-09-10T00:13:43.629Z,15.15
2022-09-10T00:16:13.260Z,15.18
2022-09-10T00:18:40.794Z,15.12
2022-09-10T00:21:10.263Z,15.18
2022-09-10T00:23:37.133Z,15.17
2022-09-10T00:26:18.091Z,15.10
2022-09-10T00:28:44.613Z,15.10
2022-09-10T00:31:11.356Z,15.16
2022-09-10T00:33:37.856Z,15.10
2022-09-10T00:36:13.650Z,15.18
2022-09-10T00:38:40.021Z,15.23
2022-09-10T00:41:08.239Z,15.17
2022-09-10T00:43:51.455Z,15.17
2022-09-10T00:46:28.467Z,15.11
2022-09-10T00:48:58.458Z,15.08
2022-09-10T00:51:30.143Z,15.09
2022-09-10T00:53:58.374Z,15.07
2022-09-10T00:56:24.889Z,15.09
2022-09-10T00:58:52.330Z,15.06
2022-09-10T01:01:19.616Z,15.10
2022-09-10T01:03:47.669Z,15.04
2022-09-10T01:06:14.099Z,15.08
2022-09-10T01:08:40.468Z,15.06
2022-09-10T01:11:37.882Z,15.04
2022-09-10T01:14:24.177Z,15.09
2022-09-10T01:17:05.503Z,15.06
2022-09-10T01:20:10.968Z,15.02
2022-09-10T01:22:54.297Z,15.03
2022-09-10T01:25:42.516Z,15.08
2022-09-10T01:28:28.326Z,15.03
2022-09-10T01:31:01.659Z,14.89
2022-09-10T01:33:37.916Z,14.98
2022-09-10T01:36:14.206Z,14.97
2022-09-10T01:38:43.493Z,15.05
2022-09-10T01:41:10.401Z,15.02
2022-09-10T01:43:37.571Z,15.03
2022-09-10T01:46:22.665Z,15.04
2022-09-10T01:49:18.844Z,15.09
2022-09-10T01:52:22.149Z,15.05
2022-09-10T01:55:15.056Z,15.05
2022-09-10T01:58:12.545Z,15.09
2022-09-10T02:00:45.604Z,15.01
2022-09-10T02:03:23.804Z,15.05
2022-09-10T02:05:53.812Z,15.02
2022-09-10T02:08:32.537Z,15.08
2022-09-10T02:11:03.871Z,15.06
2022-09-10T02:13:30.844Z,15.11
2022-09-10T02:15:57.491Z,15.10
2022-09-10T02:18:25.821Z,15.07
2022-09-10T02:20:56.436Z,15.00
2022-09-10T02:23:31.312Z,15.02
2022-09-10T02:25:58.411Z,14.94
2022-09-10T02:28:24.901Z,15.01
2022-09-10T02:30:51.262Z,14.94
2022-09-10T02:33:18.439Z,14.96
2022-09-10T02:35:45.312Z,14.99
2022-09-10T02:38:11.647Z,15.01
2022-09-10T02:40:39.245Z,15.00
2022-09-10T02:43:05.684Z,15.05
2022-09-10T02:45:32.248Z,15.00
2022-09-10T02:47:58.626Z,14.86
2022-09-10T02:50:25.154Z,14.95
2022-09-10T02:52:51.682Z,14.99
2022-09-10T02:55:18.679Z,14.97
2022-09-10T02:57:45.379Z,14.93
2022-09-10T03:00:12.132Z,15.00
2022-09-10T03:02:38.498Z,15.02
2022-09-10T03:05:05.354Z,14.99
2022-09-10T03:07:32.527Z,15.10
2022-09-10T03:09:58.910Z,15.02
2022-09-10T03:12:25.294Z,14.98
2022-09-10T03:14:52.005Z,15.00
2022-09-10T03:17:18.935Z,15.04
2022-09-10T03:19:45.313Z,15.02
2022-09-10T03:22:11.669Z,14.96
2022-09-10T03:24:38.026Z,15.10
2022-09-10T03:27:06.364Z,15.08
2022-09-10T03:29:33.397Z,15.07
2022-09-10T03:32:01.174Z,15.11
2022-09-10T03:34:27.608Z,15.13
2022-09-10T03:36:54.482Z,15.10
2022-09-10T03:39:20.876Z,15.09
2022-09-10T03:41:47.823Z,15.08
2022-09-10T03:44:14.320Z,15.07
2022-09-10T03:46:41.281Z,15.13
2022-09-10T03:49:08.003Z,15.14
2022-09-10T03:51:35.175Z,15.15
2022-09-10T03:54:01.885Z,15.19
2022-09-10T03:56:28.300Z,15.14
2022-09-10T03:58:54.699Z,15.07
2022-09-10T04:01:21.115Z,15.16
2022-09-10T04:03:47.668Z,15.20
2022-09-10T04:06:16.130Z,15.21
2022-09-10T04:08:46.192Z,15.15
2022-09-10T04:11:13.754Z,15.12
2022-09-10T04:13:40.144Z,15.13
2022-09-10T04:16:06.853Z,15.21
2022-09-10T04:18:34.503Z,15.16
2022-09-10T04:21:01.197Z,15.22
2022-09-10T04:23:28.056Z,15.24
2022-09-10T04:25:54.409Z,15.25
2022-09-10T04:28:20.769Z,15.22
2022-09-10T04:30:48.088Z,15.25
2022-09-10T04:33:14.442Z,15.25
2022-09-10T04:35:42.082Z,15.20
2022-09-10T04:38:08.665Z,15.20
2022-09-10T04:40:35.528Z,15.20
2022-09-10T04:43:01.976Z,15.18
2022-09-10T04:45:29.424Z,15.15
2022-09-10T04:47:56.556Z,15.25
2022-09-10T04:50:22.981Z,15.20
2022-09-10T04:52:49.533Z,15.24
2022-09-10T04:55:16.089Z,15.29
2022-09-10T04:57:42.428Z,15.20
2022-09-10T05:00:09.398Z,15.22
2022-09-10T05:02:37.596Z,15.14
2022-09-10T05:05:04.464Z,15.24
2022-09-10T05:07:30.926Z,15.17
2022-09-10T05:09:57.347Z,15.21
2022-09-10T05:12:24.175Z,15.18
2022-09-10T05:14:50.649Z,15.18
2022-09-10T05:17:17.048Z,15.18
2022-09-10T05:19:43.424Z,15.15
2022-09-10T05:22:09.854Z,15.19
2022-09-10T05:24:36.231Z,15.24
2022-09-10T05:27:02.784Z,15.30
2022-09-10T05:29:29.163Z,15.20
2022-09-10T05:31:55.562Z,15.25
2022-09-10T05:34:22.173Z,15.19
2022-09-10T05:36:48.746Z,15.13
2022-09-10T05:39:15.710Z,15.22
2022-09-10T05:41:43.359Z,15.26
2022-09-10T05:44:09.716Z,15.08
2022-09-10T05:46:36.199Z,15.10
2022-09-10T05:49:02.635Z,15.15
2022-09-10T05:51:30.664Z,14.97
2022-09-10T05:53:57.659Z,15.06
2022-09-10T05:56:25.688Z,15.04
2022-09-10T05:58:52.076Z,15.04
2022-09-10T06:01:18.479Z,15.05
2022-09-10T06:03:44.867Z,15.12
2022-09-10T06:06:11.903Z,15.18
2022-09-10T06:08:39.817Z,15.20
2022-09-10T06:11:07.011Z,15.31
2022-09-10T06:13:35.291Z,15.28
2022-09-10T06:16:02.349Z,15.27
2022-09-10T06:18:29.151Z,15.36
2022-09-10T06:21:04.626Z,15.39
2022-09-10T06:23:31.417Z,15.42
2022-09-10T06:26:06.465Z,15.42
2022-09-10T06:28:33.261Z,15.38
2022-09-10T06:31:00.636Z,15.48
2022-09-10T06:33:27.057Z,15.51
2022-09-10T06:35:58.388Z,15.52
2022-09-10T06:38:27.627Z,15.52
2022-09-10T06:40:55.557Z,15.54
2022-09-10T06:43:28.342Z,15.61
2022-09-10T06:45:55.544Z,15.56
2022-09-10T06:48:38.554Z,15.58
2022-09-10T06:51:08.126Z,15.61
2022-09-10T06:53:35.441Z,15.68
2022-09-10T06:56:03.051Z,15.77
2022-09-10T06:58:31.358Z,15.80
2022-09-10T07:00:57.867Z,15.92
2022-09-10T07:03:24.478Z,16.01
2022-09-10T07:05:53.357Z,16.01
2022-09-10T07:08:21.001Z,16.06
2022-09-10T07:10:47.352Z,16.01
2022-09-10T07:13:14.096Z,15.95
2022-09-10T07:15:47.143Z,16.04
2022-09-10T07:18:16.664Z,15.97
2022-09-10T07:20:43.962Z,15.93
2022-09-10T07:23:15.521Z,15.99
2022-09-10T07:25:42.652Z,15.98
2022-09-10T07:28:13.216Z,15.98
2022-09-10T07:30:41.032Z,16.01
2022-09-10T07:33:08.068Z,16.00
2022-09-10T07:35:36.211Z,16.01
2022-09-10T07:38:07.224Z,16.08
2022-09-10T07:40:34.187Z,16.13
2022-09-10T07:43:00.539Z,16.17
2022-09-10T07:45:28.154Z,16.22
2022-09-10T07:47:54.602Z,16.26
2022-09-10T07:50:21.151Z,16.28
2022-09-10T07:52:47.566Z,16.42
2022-09-10T07:55:14.019Z,16.44
2022-09-10T07:57:41.025Z,16.47
2022-09-10T08:00:16.721Z,16.53
2022-09-10T08:02:44.455Z,16.57
2022-09-10T08:05:11.518Z,16.48
2022-09-10T08:07:38.689Z,16.55
2022-09-10T08:10:07.594Z,16.48
2022-09-10T08:12:33.993Z,16.52
2022-09-10T08:15:00.983Z,16.61
2022-09-10T08:17:30.272Z,16.63
2022-09-10T08:19:57.537Z,16.77
2022-09-10T08:22:23.910Z,16.85
2022-09-10T08:24:50.308Z,16.97
2022-09-10T08:27:17.185Z,17.14
2022-09-10T08:29:44.190Z,17.15
2022-09-10T08:32:13.081Z,17.06
2022-09-10T08:34:40.542Z,16.99
2022-09-10T08:37:07.404Z,17.04
2022-09-10T08:39:33.966Z,17.05
2022-09-10T08:42:26.525Z,17.06
2022-09-10T08:44:58.209Z,17.07
2022-09-10T08:47:27.225Z,17.12
2022-09-10T08:50:03.757Z,17.18
2022-09-10T08:52:41.156Z,17.18
2022-09-10T08:55:16.648Z,17.31
2022-09-10T08:57:52.119Z,17.42
2022-09-10T09:00:24.269Z,17.72
2022-09-10T09:03:02.768Z,18.34
2022-09-10T09:05:55.564Z,20.11
2022-09-10T09:08:28.974Z,21.08
2022-09-10T09:11:05.725Z,21.89
2022-09-10T09:13:47.468Z,20.21
2022-09-10T09:16:46.258Z,19.50
2022-09-10T09:19:17.200Z,19.17
2022-09-10T09:21:54.382Z,19.04
2022-09-10T09:25:03.041Z,18.98
2022-09-10T09:27:33.904Z,19.04
2022-09-10T09:30:23.105Z,19.80
2022-09-10T09:32:50.219Z,22.04
2022-09-10T09:35:28.811Z,22.87
2022-09-10T09:38:08.603Z,23.55
2022-09-10T09:40:48.537Z,23.27
2022-09-10T09:43:33.141Z,23.29
2022-09-10T09:46:00.616Z,23.69
2022-09-10T09:48:34.548Z,22.95
2022-09-10T09:51:03.710Z,22.94
2022-09-10T09:53:31.030Z,22.05
2022-09-10T09:56:03.610Z,21.65
2022-09-10T09:58:34.239Z,23.83
2022-09-10T10:01:03.483Z,23.81
2022-09-10T10:03:54.686Z,23.11
2022-09-10T10:06:32.937Z,22.07
2022-09-10T10:09:20.101Z,21.49
2022-09-10T10:11:56.417Z,21.47
2022-09-10T10:14:43.439Z,23.56
2022-09-10T10:17:24.960Z,22.92
2022-09-10T10:20:02.162Z,22.30
2022-09-10T10:22:32.737Z,21.96
2022-09-10T10:25:01.365Z,21.48
2022-09-10T10:27:41.547Z,21.57
2022-09-10T10:30:17.067Z,21.24
2022-09-10T10:32:48.290Z,20.77
2022-09-10T10:35:26.235Z,20.41
2022-09-10T10:38:15.038Z,19.98
2022-09-10T10:40:43.395Z,19.95
2022-09-10T10:43:24.835Z,19.95
2022-09-10T10:46:08.687Z,19.93
2022-09-10T10:49:05.156Z,19.77
2022-09-10T10:51:41.540Z,19.91
2022-09-10T10:54:49.655Z,20.02
2022-09-10T10:57:46.246Z,20.52
2022-09-10T11:00:15.544Z,20.97
2022-09-10T11:02:54.363Z,21.11
2022-09-10T11:05:30.929Z,20.81
2022-09-10T11:08:03.794Z,20.55
2022-09-10T11:10:39.316Z,20.74
2022-09-10T11:13:21.984Z,20.81
2022-09-10T11:15:55.300Z,21.17
2022-09-10T11:18:33.439Z,21.10
2022-09-10T11:21:03.034Z,20.65
2022-09-10T11:23:46.483Z,20.41
2022-09-10T11:26:27.937Z,20.29
2022-09-10T11:29:25.286Z,20.08
2022-09-10T11:32:08.495Z,19.95
2022-09-10T11:35:07.351Z,19.84
2022-09-10T11:38:01.181Z,19.66
2022-09-10T11:40:33.003Z,19.82
2022-09-10T11:43:07.268Z,20.13
2022-09-10T11:45:41.345Z,20.40
2022-09-10T11:48:17.660Z,20.12
2022-09-10T11:50:54.780Z,20.17
2022-09-10T11:53:23.263Z,20.23
2022-09-10T11:56:28.941Z,20.13
2022-09-10T11:59:33.018Z,20.15
2022-09-10T12:02:14.630Z,20.21
2022-09-10T12:04:47.891Z,20.26
2022-09-10T12:07:45.547Z,21.26
2022-09-10T12:10:44.453Z,21.00
2022-09-10T12:13:17.782Z,20.82
2022-09-10T12:15:56.433Z,20.61
2022-09-10T12:18:27.962Z,20.61
2022-09-10T12:20:59.416Z,20.61
2022-09-10T12:23:27.838Z,20.60
2022-09-10T12:26:19.918Z,20.53
2022-09-10T12:28:49.322Z,20.66
2022-09-10T12:31:18.090Z,20.82
2022-09-10T12:33:44.409Z,20.78
2022-09-10T12:36:14.176Z,21.01
2022-09-10T12:39:07.069Z,21.25
2022-09-10T12:41:36.110Z,21.54
2022-09-10T12:44:24.862Z,21.47
2022-09-10T12:47:16.422Z,21.01
2022-09-10T12:49:51.799Z,21.08
2022-09-10T12:52:34.575Z,21.43
2022-09-10T12:55:55.210Z,21.27
2022-09-10T12:58:24.019Z,21.43
2022-09-10T13:01:10.975Z,21.64
2022-09-10T13:03:46.442Z,21.78
2022-09-10T13:06:12.981Z,21.99
2022-09-10T13:08:44.822Z,21.91
2022-09-10T13:11:24.801Z,22.00
2022-09-10T13:14:01.232Z,22.02
2022-09-10T13:16:27.924Z,21.78
2022-09-10T13:19:14.226Z,21.58
2022-09-10T13:21:40.549Z,21.31
2022-09-10T13:24:36.126Z,20.27
2022-09-10T13:27:34.642Z,19.30
2022-09-10T13:30:18.111Z,19.29
2022-09-10T13:32:48.310Z,19.25
2022-09-10T13:35:17.498Z,19.05
2022-09-10T13:38:02.727Z,19.02
2022-09-10T13:40:56.067Z,19.00
2022-09-10T13:43:37.559Z,18.98
2022-09-10T13:46:19.969Z,18.94
2022-09-10T13:48:52.154Z,18.96
2022-09-10T13:51:37.306Z,19.04
2022-09-10T13:54:11.663Z,19.11
2022-09-10T13:56:43.639Z,19.21
2022-09-10T13:59:19.889Z,19.19
2022-09-10T14:01:54.590Z,19.45
2022-09-10T14:04:44.734Z,19.64
2022-09-10T14:07:16.038Z,19.83
2022-09-10T14:09:48.488Z,19.92
2022-09-10T14:12:17.473Z,19.98
2022-09-10T14:14:52.836Z,20.16
2022-09-10T14:17:28.233Z,20.48
2022-09-10T14:20:01.223Z,20.82
2022-09-10T14:22:29.498Z,20.73
2022-09-10T14:24:59.704Z,20.60
2022-09-10T14:27:27.202Z,20.50
2022-09-10T14:29:56.424Z,20.42
2022-09-10T14:32:22.732Z,20.43
2022-09-10T14:34:49.122Z,20.33
2022-09-10T14:37:39.577Z,20.30
2022-09-10T14:40:18.426Z,20.28
2022-09-10T14:42:47.587Z,20.08
2022-09-10T14:45:41.023Z,20.07
2022-09-10T14:49:01.326Z,19.92
2022-09-10T14:51:27.897Z,20.18
2022-09-10T14:53:56.729Z,20.55
2022-09-10T14:56:33.355Z,20.74
2022-09-10T14:59:10.555Z,20.78
2022-09-10T15:01:37.104Z,20.82
2022-09-10T15:04:04.421Z,20.51
2022-09-10T15:06:31.600Z,20.26
2022-09-10T15:08:58.009Z,20.05
2022-09-10T15:11:27.664Z,20.30
2022-09-10T15:13:55.972Z,20.14
2022-09-10T15:16:23.342Z,20.10
2022-09-10T15:18:49.883Z,20.00
2022-09-10T15:21:16.529Z,19.82
2022-09-10T15:23:44.363Z,19.80
2022-09-10T15:26:13.770Z,19.73
2022-09-10T15:28:41.241Z,19.55
2022-09-10T15:31:08.603Z,19.52
2022-09-10T15:33:35.668Z,19.40
2022-09-10T15:36:02.287Z,19.31
2022-09-10T15:38:28.630Z,19.21
2022-09-10T15:41:06.628Z,19.30
2022-09-10T15:43:37.582Z,19.31
2022-09-10T15:46:04.552Z,19.33
2022-09-10T15:48:33.484Z,19.20
2022-09-10T15:51:02.700Z,19.18
2022-09-10T15:53:30.022Z,19.21
2022-09-10T15:56:05.526Z,19.29
2022-09-10T15:58:31.937Z,19.36
2022-09-10T16:01:07.489Z,19.24
2022-09-10T16:03:34.336Z,19.17
2022-09-10T16:06:05.963Z,19.19
2022-09-10T16:08:33.330Z,19.16
2022-09-10T16:10:59.877Z,19.14
2022-09-10T16:13:26.680Z,19.19
2022-09-10T16:16:03.364Z,19.04
2022-09-10T16:18:32.343Z,18.97
2022-09-10T16:21:11.301Z,18.99
2022-09-10T16:23:39.657Z,19.03
2022-09-10T16:26:07.588Z,18.98
2022-09-10T16:28:34.587Z,19.07
2022-09-10T16:31:15.909Z,18.90
2022-09-10T16:33:43.201Z,19.02
2022-09-10T16:36:10.815Z,19.07
2022-09-10T16:38:37.225Z,19.08
2022-09-10T16:41:05.528Z,19.13
2022-09-10T16:43:36.266Z,19.21
2022-09-10T16:46:04.132Z,19.28
2022-09-10T16:48:31.606Z,19.26
2022-09-10T16:51:09.606Z,19.26
2022-09-10T16:53:38.634Z,19.13
2022-09-10T16:56:09.926Z,19.13
2022-09-10T16:58:36.980Z,19.14
2022-09-10T17:01:06.164Z,19.03
2022-09-10T17:03:32.603Z,18.94
2022-09-10T17:06:00.011Z,18.78
2022-09-10T17:08:28.180Z,18.84
2022-09-10T17:10:55.930Z,18.85
2022-09-10T17:13:22.334Z,18.83
2022-09-10T17:15:48.743Z,18.87
2022-09-10T17:18:15.104Z,18.83
2022-09-10T17:20:42.341Z,18.83
2022-09-10T17:23:10.563Z,18.80
2022-09-10T17:25:37.296Z,18.80
2022-09-10T17:28:04.523Z,18.70
2022-09-10T17:30:31.493Z,18.58
2022-09-10T17:32:59.614Z,18.63
2022-09-10T17:35:26.044Z,18.59
2022-09-10T17:37:52.420Z,18.55
2022-09-10T17:40:20.026Z,18.56
2022-09-10T17:42:49.217Z,18.52
2022-09-10T17:45:16.166Z,18.45
2022-09-10T17:47:42.594Z,18.40
2022-09-10T17:50:09.098Z,18.38
2022-09-10T17:52:35.511Z,18.32
2022-09-10T17:55:02.569Z,18.29
2022-09-10T17:57:28.951Z,18.21
2022-09-10T17:59:55.326Z,18.17
2022-09-10T18:02:21.716Z,18.17
2022-09-10T18:04:50.218Z,18.08
2022-09-10T18:07:16.682Z,17.87
2022-09-10T18:09:43.065Z,17.91
2022-09-10T18:12:09.534Z,17.91
2022-09-10T18:14:37.244Z,17.84
2022-09-10T18:17:03.605Z,17.68
2022-09-10T18:19:30.063Z,17.66
2022-09-10T18:21:56.411Z,17.64
2022-09-10T18:24:24.101Z,17.62
2022-09-10T18:26:56.392Z,17.58
2022-09-10T18:29:25.367Z,17.60
2022-09-10T18:31:54.176Z,17.52
2022-09-10T18:34:24.021Z,17.45
2022-09-10T18:36:55.223Z,17.50
2022-09-10T18:39:23.205Z,17.37
2022-09-10T18:41:50.036Z,17.42
2022-09-10T18:44:20.639Z,17.30
2022-09-10T18:46:48.313Z,17.35
2022-09-10T18:49:20.951Z,17.34
2022-09-10T18:51:48.090Z,17.32
2022-09-10T18:54:15.746Z,17.30
2022-09-10T18:56:42.889Z,17.24
2022-09-10T18:59:15.155Z,17.23
2022-09-10T19:01:43.822Z,17.26
2022-09-10T19:04:13.230Z,17.28
2022-09-10T19:06:42.363Z,17.24
2022-09-10T19:09:11.549Z,17.24
2022-09-10T19:11:43.740Z,17.24
2022-09-10T19:14:26.065Z,17.16
2022-09-10T19:16:53.729Z,17.22
2022-09-10T19:19:22.367Z,17.20
2022-09-10T19:21:51.037Z,17.19
2022-09-10T19:24:25.379Z,17.06
2022-09-10T19:27:00.040Z,17.11
2022-09-10T19:29:26.394Z,17.06
2022-09-10T19:31:53.152Z,17.10
2022-09-10T19:34:21.413Z,17.00
2022-09-10T19:36:48.420Z,16.97
2022-09-10T19:39:16.551Z,17.03
2022-09-10T19:41:44.506Z,17.03
2022-09-10T19:44:12.706Z,16.95
2022-09-10T19:46:41.083Z,16.90
2022-09-10T19:49:10.029Z,16.89
2022-09-10T19:51:37.716Z,16.88
2022-09-10T19:54:06.529Z,16.86
2022-09-10T19:56:39.823Z,16.80
2022-09-10T19:59:09.932Z,16.77
2022-09-10T20:01:41.927Z,16.75
2022-09-10T20:04:10.639Z,16.73
2022-09-10T20:06:37.577Z,16.75
2022-09-10T20:09:05.577Z,16.73
2022-09-10T20:11:35.148Z,16.59
2022-09-10T20:14:13.668Z,16.62
2022-09-10T20:16:43.049Z,16.65
2022-09-10T20:19:13.188Z,16.65
2022-09-10T20:21:39.766Z,16.64
2022-09-10T20:24:07.210Z,16.64
2022-09-10T20:26:37.803Z,16.55
2022-09-10T20:29:07.366Z,16.56
2022-09-10T20:31:35.799Z,16.54
2022-09-10T20:34:04.808Z,16.52
2022-09-10T20:36:33.213Z,16.56
2022-09-10T20:38:59.670Z,16.48
2022-09-10T20:41:30.225Z,16.51
2022-09-10T20:43:59.095Z,16.53
2022-09-10T20:46:26.922Z,16.52
2022-09-10T20:48:53.465Z,16.48
2022-09-10T20:51:20.568Z,16.36
2022-09-10T20:53:47.989Z,16.40
2022-09-10T20:56:17.547Z,16.44
2022-09-10T20:58:44.641Z,16.36
2022-09-10T21:01:19.081Z,16.30
2022-09-10T21:03:47.412Z,16.33
2022-09-10T21:06:18.284Z,16.26
2022-09-10T21:08:46.198Z,16.35
2022-09-10T21:11:15.141Z,16.32
2022-09-10T21:13:50.346Z,16.27
2022-09-10T21:16:23.233Z,16.20
2022-09-10T21:18:54.762Z,16.20
2022-09-10T21:21:25.291Z,16.12
2022-09-10T21:23:53.861Z,16.13
2022-09-10T21:26:23.266Z,16.11
2022-09-10T21:28:52.812Z,16.08
2022-09-10T21:31:19.251Z,16.06
2022-09-10T21:33:46.170Z,16.08
2022-09-10T21:36:16.072Z,16.03
2022-09-10T21:38:53.746Z,16.02
2022-09-10T21:41:32.286Z,16.00
2022-09-10T21:44:00.367Z,15.98
2022-09-10T21:46:27.928Z,15.98
2022-09-10T21:48:55.141Z,15.99
2022-09-10T21:51:22.692Z,15.91
2022-09-10T21:53:52.755Z,15.93
2022-09-10T21:56:19.229Z,15.89
2022-09-10T21:58:45.804Z,15.83
2022-09-10T22:01:16.240Z,15.79
2022-09-10T22:03:43.074Z,15.79
2022-09-10T22:06:11.679Z,15.77
2022-09-10T22:08:40.540Z,15.73
2022-09-10T22:11:09.876Z,15.76
2022-09-10T22:13:37.903Z,15.75
2022-09-10T22:16:05.750Z,15.68
2022-09-10T22:18:34.072Z,15.66
2022-09-10T22:21:00.863Z,15.62
2022-09-10T22:23:32.788Z,15.60
2022-09-10T22:26:12.869Z,15.58
2022-09-10T22:28:40.344Z,15.56
2022-09-10T22:31:12.964Z,15.58
2022-09-10T22:33:41.292Z,15.58
2022-09-10T22:36:18.943Z,15.55
2022-09-10T22:38:51.178Z,15.58
2022-09-10T22:41:18.967Z,15.57
2022-09-10T22:43:46.163Z,15.55
2022-09-10T22:46:12.969Z,15.58
2022-09-10T22:48:42.465Z,15.53
2022-09-10T22:51:14.392Z,15.51
2022-09-10T22:53:42.272Z,15.50
2022-09-10T22:56:09.225Z,15.48
2022-09-10T22:58:39.599Z,15.45
2022-09-10T23:01:16.555Z,15.41
2022-09-10T23:03:44.277Z,15.37
2022-09-10T23:06:14.867Z,15.41
2022-09-10T23:08:44.971Z,15.34
2022-09-10T23:11:25.349Z,15.38
2022-09-10T23:13:54.922Z,15.28
2022-09-10T23:16:24.784Z,15.27
2022-09-10T23:18:54.683Z,15.25
2022-09-10T23:21:23.873Z,15.22
2022-09-10T23:23:52.716Z,15.22
2022-09-10T23:26:19.176Z,15.24
2022-09-10T23:28:46.603Z,15.24
2022-09-10T23:31:17.378Z,15.29
2022-09-10T23:33:46.691Z,15.27
2022-09-10T23:36:13.954Z,15.30
2022-09-10T23:38:42.197Z,15.28
2022-09-10T23:41:09.643Z,15.30
2022-09-10T23:43:36.023Z,15.27
2022-09-10T23:46:02.533Z,15.20
2022-09-10T23:48:29.821Z,15.22
2022-09-10T23:50:57.230Z,15.16
2022-09-10T23:53:25.286Z,15.17
2022-09-10T23:55:52.115Z,15.15
2022-09-10T23:58:19.796Z,15.17
